Aviation Digital Data Service (ADDS)

Output produced by METARs form (1104 UTC 28 September 2021)
found at http://www.aviationweather.gov/metar/data/
 
VTSB 281000Z 08004KT 040V110 9999 FEW018TCU 29/26 Q1005 NOSIG
VTSB 280900Z 08006KT 9999 -RA SCT020 28/25 Q1006 NOSIG
VTSB 280800Z 33003KT 240V040 9999 VCSH FEW018CB 34/25 Q1006 NOSIG
VTSB 280700Z 29004KT 220V010 9999 VCSH FEW018CB 33/25 Q1007 TEMPO FM0800 TL0835 2000 +TSRA
VTSB 280600Z 27004KT 210V340 9999 SCT020 33/24 Q1008 NOSIG
VTSB 280500Z VRB04KT 9999 SCT020 33/24 Q1009 NOSIG
VTSB 280400Z 27004KT 200V320 9999 FEW020 31/25 Q1010 NOSIG
VTSB 280300Z 25003KT 190V280 9999 FEW010 30/25 Q1011 NOSIG
VTSB 280200Z 25003KT 190V290 9999 FEW010 27/27 Q1011 NOSIG
VTSB 280100Z 22004KT 8000 SCT005 SCT100 25/25 Q1011 NOSIG
VTSB 280000Z 21004KT 9000 SCT010 BKN100 24/24 Q1010 NOSIG
VTSB 272300Z 22003KT 8000 SCT010 24/24 Q1009 NOSIG
VTSB 272200Z 00000KT 8000 FEW020 24/24 Q1008 NOSIG
VTSB 271500Z 29002KT 9999 FEW020 25/25 Q1010 NOSIG
VTSB 271400Z 29002KT 9999 FEW020 25/25 Q1010 NOSIG
VTSB 271300Z 01004KT 9999 FEW020 25/25 Q1008 NOSIG
VTSB 271200Z 07003KT 9999 FEW020 25/25 Q1008 NOSIG
TAF VTSB 280500Z 2806/2906 25003KT 9999 SCT020 
     TEMPO 2806/2812 VRB15G25KT 3000 TSRA FEW016CB SCT018 BKN100